createdAt,value
2023-11-03T00:02:04.923Z,0.90
2023-11-03T00:04:33.418Z,1.13
2023-11-03T00:07:05.285Z,0.77
2023-11-03T00:09:35.071Z,0.87
2023-11-03T00:12:03.312Z,1.20
2023-11-03T00:14:31.320Z,1.27
2023-11-03T00:16:59.358Z,1.00
2023-11-03T00:19:27.484Z,1.10
2023-11-03T00:21:56.470Z,1.23
2023-11-03T00:24:25.817Z,1.20
2023-11-03T00:26:55.383Z,1.20
2023-11-03T00:29:24.075Z,0.80
2023-11-03T00:31:52.215Z,1.00
2023-11-03T00:34:20.483Z,1.20
2023-11-03T00:36:48.593Z,1.47
2023-11-03T00:39:19.934Z,0.83
2023-11-03T00:41:52.543Z,0.87
2023-11-03T00:44:21.160Z,0.93
2023-11-03T00:46:50.980Z,0.90
2023-11-03T00:49:20.175Z,1.43
2023-11-03T00:51:48.336Z,1.13
2023-11-03T00:54:16.450Z,0.80
2023-11-03T00:56:44.385Z,1.23
2023-11-03T00:59:13.856Z,1.10
2023-11-03T01:01:41.797Z,1.17
2023-11-03T01:04:10.587Z,1.33
2023-11-03T01:06:39.411Z,1.57
2023-11-03T01:09:08.925Z,0.97
2023-11-03T01:11:37.940Z,1.53
2023-11-03T01:14:06.960Z,1.00
2023-11-03T01:16:37.551Z,1.07
2023-11-03T01:19:06.096Z,0.80
2023-11-03T01:21:34.370Z,0.70
2023-11-03T01:24:02.778Z,1.20
2023-11-03T01:26:30.682Z,0.80
2023-11-03T01:28:58.710Z,1.10
2023-11-03T01:31:27.065Z,1.00
2023-11-03T01:33:56.355Z,0.90
2023-11-03T01:36:24.312Z,1.13
2023-11-03T01:38:52.250Z,1.40
2023-11-03T01:41:20.285Z,1.20
2023-11-03T01:44:08.301Z,1.20
2023-11-03T01:46:37.632Z,1.17
2023-11-03T01:49:08.421Z,1.23
2023-11-03T01:51:37.039Z,2.13
2023-11-03T01:54:05.376Z,1.43
2023-11-03T01:56:35.426Z,1.40
2023-11-03T01:59:05.079Z,1.27
2023-11-03T02:01:33.399Z,1.80
2023-11-03T02:04:01.572Z,2.13
2023-11-03T02:06:31.003Z,1.50
2023-11-03T02:08:58.961Z,1.37
2023-11-03T02:11:29.749Z,1.80
2023-11-03T02:13:57.902Z,1.20
2023-11-03T02:16:26.028Z,1.50
2023-11-03T02:18:54.335Z,1.80
2023-11-03T02:21:22.297Z,1.97
2023-11-03T02:23:51.542Z,1.10
2023-11-03T02:26:19.439Z,1.03
2023-11-03T02:28:47.391Z,0.80
2023-11-03T02:31:15.369Z,1.47
2023-11-03T02:33:43.333Z,1.17
2023-11-03T02:36:11.944Z,1.23
2023-11-03T02:38:39.882Z,1.37
2023-11-03T02:41:09.418Z,0.50
2023-11-03T02:43:37.500Z,0.80
2023-11-03T02:46:07.197Z,1.20
2023-11-03T02:48:35.200Z,0.60
2023-11-03T02:51:04.466Z,0.73
2023-11-03T02:53:32.550Z,0.80
2023-11-03T02:56:00.621Z,0.40
2023-11-03T02:58:36.499Z,0.90
2023-11-03T03:01:04.787Z,0.60
2023-11-03T03:03:32.686Z,0.70
2023-11-03T03:06:00.745Z,0.80
2023-11-03T03:08:28.867Z,0.90
2023-11-03T03:10:56.919Z,0.50
2023-11-03T03:13:24.823Z,1.20
2023-11-03T03:15:54.170Z,0.73
2023-11-03T03:18:22.828Z,1.37
2023-11-03T03:20:51.447Z,0.90
2023-11-03T03:23:19.373Z,1.00
2023-11-03T03:25:47.346Z,0.60
2023-11-03T03:28:15.375Z,1.00
2023-11-03T03:30:43.738Z,0.70
2023-11-03T03:33:13.238Z,1.03
2023-11-03T03:35:41.204Z,0.80
2023-11-03T03:38:09.121Z,0.93
2023-11-03T03:40:37.062Z,1.30
2023-11-03T03:43:05.075Z,1.07
2023-11-03T03:45:33.047Z,0.83
2023-11-03T03:48:01.017Z,1.10
2023-11-03T03:50:30.316Z,1.10
2023-11-03T03:52:58.248Z,1.00
2023-11-03T03:55:26.156Z,1.60
2023-11-03T03:57:54.387Z,1.00
2023-11-03T04:00:22.937Z,1.20
2023-11-03T04:02:50.971Z,0.90
2023-11-03T04:05:19.129Z,0.97
2023-11-03T04:07:48.483Z,1.10
2023-11-03T04:10:16.685Z,0.90
2023-11-03T04:12:44.596Z,1.00
2023-11-03T04:15:12.524Z,1.30
2023-11-03T04:17:40.449Z,1.63
2023-11-03T04:20:09.583Z,1.03
2023-11-03T04:22:37.804Z,0.80
2023-11-03T04:25:07.648Z,0.80
2023-11-03T04:27:35.930Z,1.03
2023-11-03T04:30:03.914Z,0.80
2023-11-03T04:32:31.903Z,0.80
2023-11-03T04:35:00.324Z,1.23
2023-11-03T04:37:28.310Z,0.90
2023-11-03T04:39:56.275Z,1.10
2023-11-03T04:42:25.541Z,1.00
2023-11-03T04:44:54.541Z,1.30
2023-11-03T04:47:22.645Z,0.93
2023-11-03T04:49:50.844Z,0.87
2023-11-03T04:52:18.813Z,0.87
2023-11-03T04:54:46.754Z,1.20
2023-11-03T04:57:14.779Z,0.80
2023-11-03T04:59:44.015Z,0.80
2023-11-03T05:02:12.105Z,1.17
2023-11-03T05:04:39.994Z,0.77
2023-11-03T05:07:09.099Z,0.70
2023-11-03T05:09:37.432Z,0.80
2023-11-03T05:12:06.118Z,0.70
2023-11-03T05:14:34.043Z,0.87
2023-11-03T05:17:04.427Z,0.50
2023-11-03T05:19:33.749Z,0.63
2023-11-03T05:22:01.705Z,0.80
2023-11-03T05:24:29.888Z,0.70
2023-11-03T05:26:57.808Z,1.20
2023-11-03T05:29:28.057Z,1.00
2023-11-03T05:31:56.397Z,0.90
2023-11-03T05:34:26.278Z,1.20
2023-11-03T05:36:54.442Z,0.67
2023-11-03T05:39:22.857Z,1.00
2023-11-03T05:41:50.845Z,0.60
2023-11-03T05:44:18.742Z,1.00
2023-11-03T05:46:46.681Z,1.10
2023-11-03T05:49:14.713Z,0.70
2023-11-03T05:51:44.337Z,0.87
2023-11-03T05:54:12.349Z,0.73
2023-11-03T05:56:40.240Z,0.97
2023-11-03T05:59:08.427Z,1.30
2023-11-03T06:01:36.683Z,0.80
2023-11-03T06:04:04.871Z,0.97
2023-11-03T06:06:33.138Z,0.67
2023-11-03T06:09:02.473Z,0.80
2023-11-03T06:11:30.558Z,0.83
2023-11-03T06:13:58.525Z,1.20
2023-11-03T06:16:26.644Z,0.73
2023-11-03T06:18:54.803Z,0.70
2023-11-03T06:21:22.769Z,1.00
2023-11-03T06:23:50.793Z,1.03
2023-11-03T06:26:20.043Z,1.00
2023-11-03T06:28:47.978Z,1.37
2023-11-03T06:31:17.397Z,1.43
2023-11-03T06:33:46.541Z,1.17
2023-11-03T06:36:14.619Z,1.37
2023-11-03T06:38:42.557Z,1.50
2023-11-03T06:41:12.467Z,1.13
2023-11-03T06:43:43.795Z,1.13
2023-11-03T06:46:13.542Z,1.00
2023-11-03T06:48:41.680Z,1.13
2023-11-03T06:51:12.812Z,1.50
2023-11-03T06:53:40.876Z,1.13
2023-11-03T06:56:09.468Z,1.30
2023-11-03T06:58:37.511Z,1.87
2023-11-03T07:01:07.195Z,1.33
2023-11-03T07:03:35.207Z,1.10
2023-11-03T07:06:04.882Z,1.87
2023-11-03T07:08:32.950Z,1.43
2023-11-03T07:11:00.982Z,1.27
2023-11-03T07:13:30.302Z,1.50
2023-11-03T07:15:58.377Z,1.10
2023-11-03T07:18:27.848Z,1.30
2023-11-03T07:20:55.863Z,1.50
2023-11-03T07:23:23.818Z,1.00
2023-11-03T07:25:52.097Z,1.80
2023-11-03T07:28:20.205Z,1.20
2023-11-03T07:30:48.213Z,1.47
2023-11-03T07:33:18.480Z,1.60
2023-11-03T07:35:47.961Z,1.10
2023-11-03T07:38:16.008Z,1.60
2023-11-03T07:40:43.937Z,1.43
2023-11-03T07:43:11.936Z,1.30
2023-11-03T07:45:40.011Z,1.73
2023-11-03T07:48:08.883Z,1.27
2023-11-03T07:50:36.990Z,1.10
2023-11-03T07:53:08.458Z,1.47
2023-11-03T07:55:37.788Z,1.03
2023-11-03T07:58:07.018Z,1.20
2023-11-03T08:00:35.977Z,1.17
2023-11-03T08:03:07.195Z,1.17
2023-11-03T08:05:35.456Z,1.10
2023-11-03T08:08:03.739Z,1.33
2023-11-03T08:10:32.989Z,1.20
2023-11-03T08:13:01.003Z,1.60
2023-11-03T08:15:29.330Z,1.60
2023-11-03T08:17:57.634Z,1.10
2023-11-03T08:20:25.572Z,1.40
2023-11-03T08:22:54.018Z,1.33
2023-11-03T08:25:21.956Z,1.63
2023-11-03T08:27:51.958Z,1.50
2023-11-03T08:30:20.117Z,1.10
2023-11-03T08:32:50.255Z,1.17
2023-11-03T08:35:18.604Z,1.30
2023-11-03T08:37:47.121Z,1.50
2023-11-03T08:40:16.367Z,0.73
2023-11-03T08:42:45.236Z,1.60
2023-11-03T08:45:15.401Z,1.27
2023-11-03T08:47:43.651Z,1.17
2023-11-03T08:50:12.801Z,1.70
2023-11-03T08:52:41.421Z,1.10
2023-11-03T08:55:10.076Z,1.73
2023-11-03T08:57:38.727Z,1.23
2023-11-03T09:00:11.071Z,1.10
2023-11-03T09:02:41.679Z,1.43
2023-11-03T09:05:10.890Z,1.03
2023-11-03T09:07:39.002Z,2.27
2023-11-03T09:10:08.418Z,1.17
2023-11-03T09:12:38.007Z,1.40
2023-11-03T09:15:06.861Z,1.80
2023-11-03T09:17:35.250Z,1.50
2023-11-03T09:20:08.835Z,1.40
2023-11-03T09:22:38.836Z,1.20
2023-11-03T09:25:08.674Z,1.67
2023-11-03T09:27:36.592Z,1.30
2023-11-03T09:30:06.416Z,1.43
2023-11-03T09:32:34.860Z,1.13
2023-11-03T09:35:05.792Z,1.00
2023-11-03T09:37:33.763Z,1.10
2023-11-03T09:40:01.815Z,1.00
2023-11-03T09:42:31.310Z,1.23
2023-11-03T09:44:59.384Z,1.30
2023-11-03T09:47:27.889Z,1.30
2023-11-03T09:49:58.961Z,1.60
2023-11-03T09:52:31.943Z,1.27
2023-11-03T09:55:02.398Z,1.30
2023-11-03T09:57:30.817Z,1.30
2023-11-03T09:59:59.652Z,2.17
2023-11-03T10:02:27.624Z,1.33
2023-11-03T10:04:55.626Z,1.30
2023-11-03T10:07:28.621Z,1.40
2023-11-03T10:09:59.375Z,1.10
2023-11-03T10:12:27.263Z,1.10
2023-11-03T10:14:55.745Z,1.10
2023-11-03T10:17:25.425Z,1.70
2023-11-03T10:19:57.068Z,1.13
2023-11-03T10:22:25.369Z,2.07
2023-11-03T10:24:53.761Z,1.00
2023-11-03T10:27:23.096Z,1.40
2023-11-03T10:29:54.495Z,1.33
2023-11-03T10:32:22.436Z,1.37
2023-11-03T10:34:52.000Z,1.53
2023-11-03T10:37:21.917Z,1.00
2023-11-03T10:39:49.827Z,1.33
2023-11-03T10:42:21.672Z,1.60
2023-11-03T10:44:51.504Z,1.37
2023-11-03T10:47:23.664Z,1.70
2023-11-03T10:49:59.963Z,1.80
2023-11-03T10:52:30.634Z,1.40
2023-11-03T10:55:05.089Z,1.53
2023-11-03T10:57:39.977Z,1.20
2023-11-03T11:00:21.835Z,1.90
2023-11-03T11:02:56.563Z,2.17
2023-11-03T11:05:39.748Z,1.40
2023-11-03T11:08:10.154Z,2.50
2023-11-03T11:10:40.323Z,1.40
2023-11-03T11:13:17.071Z,1.73
2023-11-03T11:16:03.971Z,2.00
2023-11-03T11:18:34.959Z,1.40
2023-11-03T11:21:07.655Z,1.90
2023-11-03T11:23:38.218Z,1.63
2023-11-03T11:26:24.709Z,1.30
2023-11-03T11:29:01.811Z,1.07
2023-11-03T11:31:41.370Z,1.47
2023-11-03T11:34:13.972Z,1.47
2023-11-03T11:36:43.065Z,1.50
2023-11-03T11:39:18.391Z,1.43
2023-11-03T11:41:52.323Z,1.83
2023-11-03T11:44:24.322Z,1.40
2023-11-03T11:47:00.350Z,1.40
2023-11-03T11:49:29.644Z,1.20
2023-11-03T11:51:59.315Z,2.70
2023-11-03T11:54:27.578Z,1.30
2023-11-03T11:56:55.779Z,1.50
2023-11-03T11:59:25.114Z,0.87
2023-11-03T12:01:57.484Z,1.87
2023-11-03T12:04:25.593Z,1.70
2023-11-03T12:06:54.093Z,1.37
2023-11-03T12:09:22.416Z,1.37
2023-11-03T12:11:50.434Z,1.07
2023-11-03T12:14:18.322Z,1.17
2023-11-03T12:16:47.226Z,1.00
2023-11-03T12:19:17.446Z,1.10
2023-11-03T12:21:51.257Z,1.00
2023-11-03T12:24:19.635Z,1.37
2023-11-03T12:26:47.756Z,1.70
2023-11-03T12:29:31.112Z,1.30
2023-11-03T12:32:01.034Z,3.50
2023-11-03T12:34:32.209Z,1.50
2023-11-03T12:37:00.996Z,1.20
2023-11-03T12:39:29.067Z,1.20
2023-11-03T12:42:04.568Z,1.50
2023-11-03T12:44:32.893Z,2.17
2023-11-03T12:47:02.586Z,1.60
2023-11-03T12:49:32.615Z,1.87
2023-11-03T12:52:00.785Z,1.10
2023-11-03T12:54:30.920Z,1.40
2023-11-03T12:56:59.471Z,1.93
2023-11-03T12:59:27.461Z,1.50
2023-11-03T13:01:55.371Z,1.17
2023-11-03T13:04:23.308Z,1.40
2023-11-03T13:06:58.543Z,2.60
2023-11-03T13:09:27.554Z,2.07
2023-11-03T13:11:55.503Z,1.40
2023-11-03T13:14:23.406Z,1.03
2023-11-03T13:16:51.316Z,1.20
2023-11-03T13:19:19.748Z,1.33
2023-11-03T13:21:47.676Z,1.33
2023-11-03T13:24:17.266Z,1.20
2023-11-03T13:26:45.181Z,1.60
2023-11-03T13:29:13.087Z,1.30
2023-11-03T13:31:40.976Z,1.33
2023-11-03T13:34:13.346Z,1.60
2023-11-03T13:36:42.833Z,1.60
2023-11-03T13:39:11.598Z,1.70
2023-11-03T13:41:40.830Z,1.40
2023-11-03T13:44:08.714Z,1.60
2023-11-03T13:46:36.678Z,1.67
2023-11-03T13:49:06.276Z,2.20
2023-11-03T13:51:34.258Z,1.17
2023-11-03T13:54:02.129Z,1.13
2023-11-03T13:56:30.097Z,1.47
2023-11-03T13:58:59.840Z,1.80
2023-11-03T14:01:29.322Z,1.20
2023-11-03T14:03:57.371Z,1.30
2023-11-03T14:06:25.325Z,1.20
2023-11-03T14:08:55.978Z,1.50
2023-11-03T14:11:25.159Z,2.33
2023-11-03T14:13:53.083Z,1.50
2023-11-03T14:16:22.735Z,1.70
2023-11-03T14:18:50.904Z,1.00
2023-11-03T14:21:19.609Z,1.20
2023-11-03T14:23:50.492Z,1.63
2023-11-03T14:26:19.349Z,1.87
2023-11-03T14:28:47.249Z,1.20
2023-11-03T14:31:15.237Z,1.67
2023-11-03T14:33:45.848Z,1.43
2023-11-03T14:36:15.192Z,1.10
2023-11-03T14:38:43.867Z,0.97
2023-11-03T14:41:12.012Z,1.40
2023-11-03T14:43:41.102Z,1.43
2023-11-03T14:46:09.023Z,1.60
2023-11-03T14:48:36.943Z,1.10
2023-11-03T14:51:06.364Z,1.67
2023-11-03T14:53:35.700Z,1.10
2023-11-03T14:56:03.949Z,1.40
2023-11-03T14:58:31.965Z,1.27
2023-11-03T15:01:00.364Z,1.87
2023-11-03T15:03:28.442Z,1.50
2023-11-03T15:05:56.354Z,1.90
2023-11-03T15:08:25.655Z,1.63
2023-11-03T15:10:53.759Z,1.80
2023-11-03T15:13:21.826Z,1.50
2023-11-03T15:15:49.727Z,1.90
2023-11-03T15:18:18.090Z,0.97
2023-11-03T15:20:46.060Z,1.17
2023-11-03T15:23:13.956Z,1.37
2023-11-03T15:25:43.178Z,1.70
2023-11-03T15:28:13.117Z,1.53
2023-11-03T15:30:41.029Z,2.30
2023-11-03T15:33:11.991Z,1.63
2023-11-03T15:35:39.970Z,1.50
2023-11-03T15:38:08.316Z,1.00
2023-11-03T15:40:36.509Z,1.87
2023-11-03T15:43:05.838Z,1.33
2023-11-03T15:45:33.730Z,2.37
2023-11-03T15:48:01.972Z,1.30
2023-11-03T15:50:33.315Z,1.20
2023-11-03T15:53:01.332Z,1.93
2023-11-03T15:55:29.507Z,3.60
2023-11-03T15:57:57.571Z,3.17
2023-11-03T16:00:26.837Z,1.73
2023-11-03T16:02:55.195Z,1.60
2023-11-03T16:05:23.546Z,1.00
2023-11-03T16:07:51.924Z,1.80
2023-11-03T16:10:20.069Z,2.13
2023-11-03T16:12:48.972Z,6.90
2023-11-03T16:15:17.863Z,1.97
2023-11-03T16:17:47.328Z,1.63
2023-11-03T16:20:18.365Z,2.50
2023-11-03T16:22:47.468Z,1.20
2023-11-03T16:25:16.450Z,1.00
2023-11-03T16:27:45.302Z,2.30
2023-11-03T16:30:17.774Z,1.30
2023-11-03T16:32:49.413Z,1.63
2023-11-03T16:35:17.630Z,1.37
2023-11-03T16:37:45.770Z,1.33
2023-11-03T16:40:14.604Z,1.10
2023-11-03T16:42:44.042Z,1.80
2023-11-03T16:45:12.789Z,1.10
2023-11-03T16:47:41.195Z,1.30
2023-11-03T16:50:12.965Z,1.47
2023-11-03T16:52:42.565Z,1.80
2023-11-03T16:55:14.707Z,1.60
2023-11-03T16:57:43.025Z,1.10
2023-11-03T17:00:13.715Z,1.20
2023-11-03T17:02:45.186Z,1.30
2023-11-03T17:05:16.851Z,1.00
2023-11-03T17:07:46.106Z,2.47
2023-11-03T17:10:15.906Z,2.63
2023-11-03T17:12:56.642Z,2.50
2023-11-03T17:15:28.488Z,4.47
2023-11-03T17:17:56.575Z,8.43
2023-11-03T17:20:26.394Z,8.17
2023-11-03T17:22:55.551Z,8.23
2023-11-03T17:25:26.070Z,5.40
2023-11-03T17:27:54.590Z,5.00
2023-11-03T17:30:22.752Z,5.50
2023-11-03T17:32:53.008Z,3.40
2023-11-03T17:35:24.107Z,3.00
2023-11-03T17:37:55.420Z,2.80
2023-11-03T17:40:25.073Z,2.33
2023-11-03T17:42:53.915Z,2.50
2023-11-03T17:45:22.742Z,2.93
2023-11-03T17:47:52.327Z,2.17
2023-11-03T17:50:21.435Z,3.10
2023-11-03T17:52:50.052Z,2.20
2023-11-03T17:55:23.104Z,2.37
2023-11-03T17:57:52.871Z,2.20
2023-11-03T18:00:24.465Z,2.53
2023-11-03T18:02:54.165Z,2.10
2023-11-03T18:05:22.672Z,1.50
2023-11-03T18:07:50.746Z,2.10
2023-11-03T18:10:20.046Z,2.27
2023-11-03T18:12:50.278Z,2.60
2023-11-03T18:15:21.988Z,2.50
2023-11-03T18:17:50.356Z,1.97
2023-11-03T18:20:18.922Z,1.90
2023-11-03T18:22:48.949Z,2.50
2023-11-03T18:25:20.332Z,2.43
2023-11-03T18:27:49.944Z,2.73
2023-11-03T18:30:18.257Z,1.70
2023-11-03T18:32:47.176Z,1.60
2023-11-03T18:35:15.639Z,2.73
2023-11-03T18:37:43.865Z,2.03
2023-11-03T18:40:15.277Z,1.80
2023-11-03T18:42:46.009Z,2.17
2023-11-03T18:45:16.096Z,1.57
2023-11-03T18:47:44.545Z,1.90
2023-11-03T18:52:44.077Z,2.07
2023-11-03T18:56:06.032Z,1.57
2023-11-03T19:04:41.605Z,1.63
2023-11-03T19:08:25.545Z,1.50
2023-11-03T19:10:53.660Z,1.97
2023-11-03T19:13:22.640Z,1.73
2023-11-03T19:15:52.708Z,1.37
2023-11-03T19:18:21.489Z,1.00
2023-11-03T19:20:49.698Z,1.80
2023-11-03T19:23:18.135Z,1.40
2023-11-03T19:25:46.943Z,1.50
2023-11-03T19:28:15.547Z,1.87
2023-11-03T19:30:44.447Z,1.70
2023-11-03T19:33:14.423Z,2.07
2023-11-03T19:35:49.518Z,8.37
2023-11-03T19:38:20.677Z,5.67
2023-11-03T19:40:49.572Z,3.77
2023-11-03T19:43:17.822Z,3.73
2023-11-03T19:45:45.789Z,3.67
2023-11-03T19:48:15.763Z,3.97
2023-11-03T19:50:43.962Z,2.87
2023-11-03T19:53:12.303Z,2.47
2023-11-03T19:55:40.861Z,2.47
2023-11-03T19:58:10.030Z,2.17
2023-11-03T20:00:37.987Z,2.20
2023-11-03T20:03:06.512Z,2.17
2023-11-03T20:05:36.386Z,1.37
2023-11-03T20:08:05.411Z,1.50
2023-11-03T20:10:33.566Z,1.53
2023-11-03T20:13:01.519Z,1.50
2023-11-03T20:15:29.476Z,1.73
2023-11-03T20:17:57.469Z,1.57
2023-11-03T20:20:26.194Z,1.50
2023-11-03T20:22:55.953Z,2.00
2023-11-03T20:25:23.990Z,2.10
2023-11-03T20:27:52.083Z,1.83
2023-11-03T20:30:20.586Z,1.77
2023-11-03T20:32:48.829Z,1.30
2023-11-03T20:35:18.791Z,1.60
2023-11-03T20:37:46.757Z,1.30
2023-11-03T20:40:17.092Z,1.77
2023-11-03T20:42:45.480Z,1.50
2023-11-03T20:45:15.304Z,1.73
2023-11-03T20:47:44.164Z,1.27
2023-11-03T20:50:14.213Z,1.90
2023-11-03T20:52:42.200Z,1.70
2023-11-03T20:55:10.678Z,2.37
2023-11-03T20:57:40.277Z,1.90
2023-11-03T21:00:10.119Z,2.00
2023-11-03T21:02:38.069Z,1.60
2023-11-03T21:05:07.587Z,1.63
2023-11-03T21:07:35.579Z,1.87
2023-11-03T21:10:03.651Z,1.17
2023-11-03T21:12:31.649Z,1.37
2023-11-03T21:15:00.921Z,1.60
2023-11-03T21:17:28.973Z,1.40
2023-11-03T21:19:57.708Z,1.73
2023-11-03T21:22:26.333Z,1.47
2023-11-03T21:24:56.025Z,1.33
2023-11-03T21:27:24.013Z,1.60
2023-11-03T21:29:51.959Z,2.00
2023-11-03T21:32:23.039Z,1.90
2023-11-03T21:34:51.357Z,1.10
2023-11-03T21:37:19.294Z,1.90
2023-11-03T21:39:48.380Z,1.67
2023-11-03T21:42:16.898Z,1.50
2023-11-03T21:44:44.847Z,1.40
2023-11-03T21:47:12.773Z,2.07
2023-11-03T21:49:42.662Z,1.57
2023-11-03T21:52:10.655Z,1.33
2023-11-03T21:54:39.114Z,2.00
2023-11-03T21:57:07.505Z,1.90
2023-11-03T21:59:35.627Z,1.97
2023-11-03T22:02:05.337Z,1.57
2023-11-03T22:04:33.517Z,2.13
2023-11-03T22:07:05.677Z,2.40
2023-11-03T22:09:34.437Z,1.77
2023-11-03T22:12:03.200Z,1.80
2023-11-03T22:14:31.626Z,2.43
2023-11-03T22:16:59.638Z,1.40
2023-11-03T22:19:27.941Z,1.30
2023-11-03T22:21:56.100Z,1.80
2023-11-03T22:24:25.422Z,1.70
2023-11-03T22:26:53.326Z,1.53
2023-11-03T22:29:21.502Z,1.40
2023-11-03T22:31:51.182Z,1.70
2023-11-03T22:34:20.486Z,2.27
2023-11-03T22:36:49.639Z,1.60
2023-11-03T22:39:20.485Z,1.83
2023-11-03T22:41:50.508Z,2.10
2023-11-03T22:44:19.843Z,1.70
2023-11-03T22:46:48.103Z,1.47
2023-11-03T22:49:16.330Z,2.47
2023-11-03T22:51:44.418Z,1.77
2023-11-03T22:54:12.453Z,1.73
2023-11-03T22:56:40.496Z,1.73
2023-11-03T22:59:09.760Z,1.43
2023-11-03T23:01:40.893Z,1.97
2023-11-03T23:04:10.790Z,2.20
2023-11-03T23:06:38.985Z,1.30
2023-11-03T23:09:07.962Z,1.30
2023-11-03T23:11:35.873Z,1.83
2023-11-03T23:14:03.761Z,1.77
2023-11-03T23:16:33.047Z,1.90
2023-11-03T23:19:01.072Z,1.70
2023-11-03T23:21:29.407Z,1.87
2023-11-03T23:23:57.360Z,1.70
2023-11-03T23:26:25.265Z,2.00
2023-11-03T23:28:53.488Z,1.83
2023-11-03T23:31:21.467Z,1.87
2023-11-03T23:33:52.202Z,1.70
2023-11-03T23:36:23.745Z,1.67
2023-11-03T23:38:53.225Z,1.40
2023-11-03T23:41:22.381Z,1.73
2023-11-03T23:43:50.745Z,1.77
2023-11-03T23:46:19.343Z,1.37
2023-11-03T23:48:48.576Z,1.67
2023-11-03T23:51:17.958Z,1.40
2023-11-03T23:53:46.339Z,1.47
2023-11-03T23:56:14.975Z,3.30
2023-11-03T23:58:44.148Z,1.40
